aviador You're here:

YBBN Decoded Metar

BRISBANE in AUSTRALIA
Report Time2017-11-25 05:00:00
UTC Time2017-11-25 05:37:30
Flight Rules vfr VFR
Wind110° at 11 kt
W.Decomp.*RWY 14: 8.3 kt HW 7.2 kt LCW
RWY 01: 0.2 kt HW 11.0 kt RCW
W.Rank110° ranks 4
Current wind is above 110° avg. (8.2)
Visibility9999 m
Phenomena:N/A
Clouds:Few 030 Hf
Scattered 130 Hf
Expected CloudBase > 3,600 ft AGL from Temp-Dew spread
CeilingNone
Temp27°C (ISA +12)
Dew Point18°C (58% RH)
Heat Index27.9°C
AAT25.8°C
QNH1013 hPa
Density Alt1,677 ft
Elevation16 ft
Report Wrong Elevation
Raw Report
METAR YBBN 250500Z 11011KT 9999 FEW030 SCT130 27/18 Q1013 NOSIG=

Extra information for YBBN:More info

Metar Taf Metar & Taf Last 4 Metars F.Rules Stats Wind Profile Meteogram Temp Stats Airport Information Weather charts Add Link Nearby VenuesMetar ALERT Operation Metar Decoded Social comments